Flight Track Log - Related Links

Times and Time Zones

All times are in EDT time to prevent confusion due to time zone crossing. See the SCX8700 flight status page for this flight to view local times or setup timezone preferences in your user account.

Time Position Orientation Groundspeed Altitude Reporting Facility
EDT Latitude Longitude Course Direction KTS MPH feet Rate Location/Type
Thu 04:37:33 PM 25.8017 -80.2978 287° West 183 211 1,200  Level Miami Center
Thu 04:38:22 PM 25.8153 -80.3472 287° West 213 245 4,100 3,351 Climbing Miami Center
Thu 04:38:50 PM 25.8253 -80.3747 292° West 228 262 5,500 2,308 Climbing Miami Center
Thu 04:39:53 PM 25.8506 -80.4528 290° West 272 313 7,600 2,640 Climbing Miami Center
Thu 04:40:55 PM 25.9075 -80.5097 318° Northwest 274 315 11,000 3,387 Climbing Miami Center
Thu 04:41:57 PM 25.9742 -80.5783 317° Northwest 329 379 14,600 3,581 Climbing Miami Center
Thu 04:42:59 PM 26.0597 -80.6650 318° Northwest 347 399 18,400 3,484 Climbing Miami Center
Thu 04:44:01 PM 26.1342 -80.7400 318° Northwest 360 414 21,800 503 Climbing Miami Center
Thu 04:50:08 PM 26.5550 -81.2187 307° West 364 419 22,000 26 Climbing FlightAware ADS-B
Thu 04:51:37 PM 26.6641 -81.3809 310° West 369 425 22,000  Level FlightAware ADS-B
Thu 04:53:01 PM 26.8026 -81.4092 13° North 389 448 22,000  Level FlightAware ADS-B
Thu 04:53:31 PM 26.8522 -81.3969 13° North 386 444 22,000  Level FlightAware ADS-B
Thu 04:54:15 PM 26.9320 -81.3944 339° North 372 428 22,000  Level FlightAware ADS-B
Thu 04:54:42 PM 26.9736 -81.4151 327° Northwest 366 421 22,000  Level FlightAware ADS-B
Thu 04:55:20 PM 27.0097 -81.4602 306° West 369 425 22,000  Level FlightAware ADS-B
Thu 04:55:57 PM 27.0500 -81.5227 306° West 373 429 22,000 -1,191 Level FlightAware ADS-B
Thu 04:57:41 PM 27.1710 -81.6762 319° Northwest 373 429 19,200 -1,903 Descending FlightAware ADS-B
Thu 04:58:22 PM 27.2217 -81.7328 304° West 368 423 17,400 -2,430 Descending FlightAware ADS-B
Thu 05:00:19 PM 27.2431 -81.9361 267° West 333 383 12,800 -2,304 Descending FlightAware ADS-B
Thu 05:00:40 PM 27.2484 -81.9730 292° West 329 379 12,100 -1,588 Descending FlightAware ADS-B
Thu 05:01:27 PM 27.3038 -82.0233 328° Northwest 328 377 11,000 -367 Descending FlightAware ADS-B
Thu 05:03:40 PM 27.4667 -82.1512 313° West 327 376 11,000  Level FlightAware ADS-B
Thu 05:04:13 PM 27.4983 -82.1986 288° West 324 373 11,000 -66 Level FlightAware ADS-B
Thu 05:05:11 PM 27.5167 -82.2833 288° West 284 327 10,900 -527 Descending Tampa TRACON
Thu 05:05:44 PM 27.5294 -82.3161 294° West 289 333 10,200 -1,263 Descending Miami Center
Thu 05:06:46 PM 27.5511 -82.3956 287° West 271 312 8,900 -1,500 Descending Miami Center
Thu 05:07:48 PM 27.5764 -82.4889 287° West 263 303 7,100 -1,645 Descending Miami Center
Thu 05:08:50 PM 27.5978 -82.5664 287° West 260 299 5,500 -1,500 Descending Miami Center
Thu 05:09:52 PM 27.6197 -82.6431 288° West 259 298 4,000 -774 Descending Miami Center
Thu 05:10:54 PM 27.6419 -82.7175 289° West 255 293 3,900 -48 Descending Miami Center
Thu 05:11:56 PM 27.7069 -82.7547 333° Northwest 265 305 3,900  Level Miami Center
Thu 05:12:58 PM 27.7764 -82.7856 339° North 266 306 3,900  Level Miami Center
Thu 05:14:00 PM 27.8461 -82.8150 340° North 267 307 3,900 -581 Level Miami Center
Thu 05:15:02 PM 27.9356 -82.8219 356° North 275 316 2,700 -677 Descending Miami Center
Thu 05:16:04 PM 28.0111 -82.8231 359° North 273 314 2,500 -97 Descending Miami Center
Thu 05:17:06 PM 28.0825 -82.8111 North 272 313 2,500 -242 Level Miami Center
Thu 05:18:08 PM 28.0983 -82.7414 76° East 259 298 2,000 -532 Descending Miami Center
Thu 05:19:10 PM 28.0758 -82.6906 117° Southeast 242 278 1,400 -290 Descending Miami Center
Thu 05:20:12 PM 28.0225 -82.6711 162° South 217 250 1,400 -188 Level Miami Center
Thu 05:21:18 PM 27.9667 -82.6833 191° South 183 211 1,000 -364 Descending Tampa TRACON

Login

Don't have an account? Register now (free) for customized features, flight alerts, and more!